sensor_id;sensor_type;location;lat;lon;timestamp;temperature;humidity
13072;DHT22;6602;58.934;11.166;2023-03-01T00:00:29;-0.40;99.90
13072;DHT22;6602;58.934;11.166;2023-03-01T00:05:33;-0.30;99.90
13072;DHT22;6602;58.934;11.166;2023-03-01T00:16:35;-0.40;99.90
13072;DHT22;6602;58.934;11.166;2023-03-01T00:21:53;-0.50;99.90
13072;DHT22;6602;58.934;11.166;2023-03-01T00:26:59;-0.50;99.90
13072;DHT22;6602;58.934;11.166;2023-03-01T00:32:06;-0.50;99.90
13072;DHT22;6602;58.934;11.166;2023-03-01T00:37:15;-0.50;99.90
13072;DHT22;6602;58.934;11.166;2023-03-01T00:42:23;-0.50;99.90
13072;DHT22;6602;58.934;11.166;2023-03-01T00:47:43;-0.60;99.90
13072;DHT22;6602;58.934;11.166;2023-03-01T00:52:46;-0.60;99.90
13072;DHT22;6602;58.934;11.166;2023-03-01T00:58:06;-0.60;99.90
13072;DHT22;6602;58.934;11.166;2023-03-01T01:03:10;-0.60;99.90
13072;DHT22;6602;58.934;11.166;2023-03-01T01:08:15;-0.60;99.90
13072;DHT22;6602;58.934;11.166;2023-03-01T01:13:18;-0.60;99.90
13072;DHT22;6602;58.934;11.166;2023-03-01T01:18:24;-0.60;99.90
13072;DHT22;6602;58.934;11.166;2023-03-01T01:23:30;-0.70;99.90
13072;DHT22;6602;58.934;11.166;2023-03-01T01:28:35;-0.70;99.90
13072;DHT22;6602;58.934;11.166;2023-03-01T01:33:56;-0.70;99.90
13072;DHT22;6602;58.934;11.166;2023-03-01T01:39:05;-0.60;99.90
13072;DHT22;6602;58.934;11.166;2023-03-01T01:44:27;-0.70;99.90
13072;DHT22;6602;58.934;11.166;2023-03-01T01:49:41;-0.60;99.90
13072;DHT22;6602;58.934;11.166;2023-03-01T02:00:29;-0.70;99.90
13072;DHT22;6602;58.934;11.166;2023-03-01T02:06:04;-0.70;99.90
13072;DHT22;6602;58.934;11.166;2023-03-01T02:11:25;-0.60;99.90
13072;DHT22;6602;58.934;11.166;2023-03-01T02:16:31;-0.60;99.90
13072;DHT22;6602;58.934;11.166;2023-03-01T02:22:00;-0.70;99.90
13072;DHT22;6602;58.934;11.166;2023-03-01T02:27:25;-0.80;99.90
13072;DHT22;6602;58.934;11.166;2023-03-01T02:32:34;-0.80;99.90
13072;DHT22;6602;58.934;11.166;2023-03-01T02:37:41;-0.80;99.90
13072;DHT22;6602;58.934;11.166;2023-03-01T02:42:56;-0.80;99.90
13072;DHT22;6602;58.934;11.166;2023-03-01T02:47:57;-0.90;99.90
13072;DHT22;6602;58.934;11.166;2023-03-01T02:58:03;-1.00;99.90
13072;DHT22;6602;58.934;11.166;2023-03-01T03:03:05;-1.00;99.90
13072;DHT22;6602;58.934;11.166;2023-03-01T03:08:09;-0.90;99.90
13072;DHT22;6602;58.934;11.166;2023-03-01T03:13:14;-0.90;99.90
13072;DHT22;6602;58.934;11.166;2023-03-01T03:18:16;-0.80;99.90
13072;DHT22;6602;58.934;11.166;2023-03-01T03:23:17;-0.90;99.90
13072;DHT22;6602;58.934;11.166;2023-03-01T03:28:18;-0.80;99.90
13072;DHT22;6602;58.934;11.166;2023-03-01T03:33:19;-0.80;99.90
13072;DHT22;6602;58.934;11.166;2023-03-01T03:38:20;-0.80;99.90
13072;DHT22;6602;58.934;11.166;2023-03-01T03:43:25;-0.80;99.90
13072;DHT22;6602;58.934;11.166;2023-03-01T03:48:26;-0.80;99.90
13072;DHT22;6602;58.934;11.166;2023-03-01T03:53:29;-0.90;99.90
13072;DHT22;6602;58.934;11.166;2023-03-01T03:58:36;-1.00;99.90
13072;DHT22;6602;58.934;11.166;2023-03-01T04:03:37;-0.90;99.90
13072;DHT22;6602;58.934;11.166;2023-03-01T04:08:38;-0.90;99.90
13072;DHT22;6602;58.934;11.166;2023-03-01T04:13:44;-0.90;99.90
13072;DHT22;6602;58.934;11.166;2023-03-01T04:18:46;-0.90;99.90
13072;DHT22;6602;58.934;11.166;2023-03-01T04:23:49;-0.90;99.90
13072;DHT22;6602;58.934;11.166;2023-03-01T04:28:52;-1.00;99.90
13072;DHT22;6602;58.934;11.166;2023-03-01T04:33:55;-1.10;99.90
13072;DHT22;6602;58.934;11.166;2023-03-01T04:38:59;-1.10;99.90
13072;DHT22;6602;58.934;11.166;2023-03-01T04:44:00;-1.40;99.90
13072;DHT22;6602;58.934;11.166;2023-03-01T04:49:01;-1.40;99.90
13072;DHT22;6602;58.934;11.166;2023-03-01T04:54:03;-1.40;99.90
13072;DHT22;6602;58.934;11.166;2023-03-01T04:59:15;-1.40;99.90
13072;DHT22;6602;58.934;11.166;2023-03-01T05:04:18;-1.50;99.90
13072;DHT22;6602;58.934;11.166;2023-03-01T05:09:19;-1.50;99.90
13072;DHT22;6602;58.934;11.166;2023-03-01T05:14:21;-1.40;99.90
13072;DHT22;6602;58.934;11.166;2023-03-01T05:19:24;-1.40;99.90
13072;DHT22;6602;58.934;11.166;2023-03-01T05:24:32;-1.40;99.90
13072;DHT22;6602;58.934;11.166;2023-03-01T05:29:33;-1.50;99.90
13072;DHT22;6602;58.934;11.166;2023-03-01T05:34:42;-1.50;99.90
13072;DHT22;6602;58.934;11.166;2023-03-01T05:39:46;-1.50;99.90
13072;DHT22;6602;58.934;11.166;2023-03-01T05:45:08;-1.60;99.90
13072;DHT22;6602;58.934;11.166;2023-03-01T05:50:21;-1.70;99.90
13072;DHT22;6602;58.934;11.166;2023-03-01T05:55:23;-1.70;99.90
13072;DHT22;6602;58.934;11.166;2023-03-01T06:00:28;-1.60;99.90
13072;DHT22;6602;58.934;11.166;2023-03-01T06:05:33;-1.60;99.90
13072;DHT22;6602;58.934;11.166;2023-03-01T06:10:34;-1.60;99.90
13072;DHT22;6602;58.934;11.166;2023-03-01T06:15:36;-1.60;99.90
13072;DHT22;6602;58.934;11.166;2023-03-01T06:20:43;-1.60;99.90
13072;DHT22;6602;58.934;11.166;2023-03-01T06:25:46;-1.70;99.90
13072;DHT22;6602;58.934;11.166;2023-03-01T06:30:49;-1.60;99.90
13072;DHT22;6602;58.934;11.166;2023-03-01T06:35:56;-1.60;99.90
13072;DHT22;6602;58.934;11.166;2023-03-01T06:40:58;-1.60;99.90
13072;DHT22;6602;58.934;11.166;2023-03-01T06:46:05;-1.60;99.90
13072;DHT22;6602;58.934;11.166;2023-03-01T06:51:08;-1.50;99.90
13072;DHT22;6602;58.934;11.166;2023-03-01T06:56:21;-1.30;99.90
13072;DHT22;6602;58.934;11.166;2023-03-01T07:01:22;-0.90;99.90
13072;DHT22;6602;58.934;11.166;2023-03-01T07:06:26;-0.70;99.90
13072;DHT22;6602;58.934;11.166;2023-03-01T07:11:27;0.40;99.90
13072;DHT22;6602;58.934;11.166;2023-03-01T07:16:30;1.10;99.90
13072;DHT22;6602;58.934;11.166;2023-03-01T07:21:33;2.10;99.90
13072;DHT22;6602;58.934;11.166;2023-03-01T07:26:34;3.80;99.90
13072;DHT22;6602;58.934;11.166;2023-03-01T07:31:35;5.50;99.90
13072;DHT22;6602;58.934;11.166;2023-03-01T07:36:39;5.90;99.90
13072;DHT22;6602;58.934;11.166;2023-03-01T07:41:43;5.20;99.90
13072;DHT22;6602;58.934;11.166;2023-03-01T07:46:44;5.00;99.90
13072;DHT22;6602;58.934;11.166;2023-03-01T07:51:54;5.50;99.90
13072;DHT22;6602;58.934;11.166;2023-03-01T07:56:57;5.70;99.90
13072;DHT22;6602;58.934;11.166;2023-03-01T08:02:05;5.10;99.90
13072;DHT22;6602;58.934;11.166;2023-03-01T08:07:09;5.10;99.90
13072;DHT22;6602;58.934;11.166;2023-03-01T08:12:28;5.60;99.90
13072;DHT22;6602;58.934;11.166;2023-03-01T08:17:49;6.50;99.90
13072;DHT22;6602;58.934;11.166;2023-03-01T08:23:09;7.50;99.90
13072;DHT22;6602;58.934;11.166;2023-03-01T08:28:29;6.80;99.90
13072;DHT22;6602;58.934;11.166;2023-03-01T08:33:50;6.60;99.90
13072;DHT22;6602;58.934;11.166;2023-03-01T08:39:15;6.80;99.90
13072;DHT22;6602;58.934;11.166;2023-03-01T08:44:36;6.80;99.90
13072;DHT22;6602;58.934;11.166;2023-03-01T08:49:42;6.90;99.90
13072;DHT22;6602;58.934;11.166;2023-03-01T08:55:01;6.70;99.90
13072;DHT22;6602;58.934;11.166;2023-03-01T09:00:21;6.70;99.90
13072;DHT22;6602;58.934;11.166;2023-03-01T09:05:40;6.80;99.90
13072;DHT22;6602;58.934;11.166;2023-03-01T09:11:02;7.00;99.90
13072;DHT22;6602;58.934;11.166;2023-03-01T09:16:23;7.10;99.90
13072;DHT22;6602;58.934;11.166;2023-03-01T09:21:43;7.10;99.90
13072;DHT22;6602;58.934;11.166;2023-03-01T09:27:01;7.40;99.90
13072;DHT22;6602;58.934;11.166;2023-03-01T09:32:21;6.60;99.90
13072;DHT22;6602;58.934;11.166;2023-03-01T09:37:40;6.10;99.90
13072;DHT22;6602;58.934;11.166;2023-03-01T09:43:13;6.30;99.90
13072;DHT22;6602;58.934;11.166;2023-03-01T09:48:49;6.60;99.90
13072;DHT22;6602;58.934;11.166;2023-03-01T09:54:10;7.10;99.90
13072;DHT22;6602;58.934;11.166;2023-03-01T10:00:07;7.40;99.90
13072;DHT22;6602;58.934;11.166;2023-03-01T10:06:03;6.90;99.90
13072;DHT22;6602;58.934;11.166;2023-03-01T10:11:28;6.40;99.90
13072;DHT22;6602;58.934;11.166;2023-03-01T10:16:54;6.40;99.90
13072;DHT22;6602;58.934;11.166;2023-03-01T10:22:24;6.40;99.90
13072;DHT22;6602;58.934;11.166;2023-03-01T10:27:58;6.20;99.90
13072;DHT22;6602;58.934;11.166;2023-03-01T10:38:53;5.80;99.90
13072;DHT22;6602;58.934;11.166;2023-03-01T10:44:37;5.90;99.90
13072;DHT22;6602;58.934;11.166;2023-03-01T10:50:08;5.90;99.90
13072;DHT22;6602;58.934;11.166;2023-03-01T10:55:40;5.80;99.90
13072;DHT22;6602;58.934;11.166;2023-03-01T11:01:33;5.90;99.90
13072;DHT22;6602;58.934;11.166;2023-03-01T11:07:01;5.90;99.90
13072;DHT22;6602;58.934;11.166;2023-03-01T11:12:22;6.00;99.90
13072;DHT22;6602;58.934;11.166;2023-03-01T11:17:43;6.10;99.90
13072;DHT22;6602;58.934;11.166;2023-03-01T11:23:13;6.30;99.90
13072;DHT22;6602;58.934;11.166;2023-03-01T11:28:36;6.40;99.90
13072;DHT22;6602;58.934;11.166;2023-03-01T11:34:12;6.60;99.90
13072;DHT22;6602;58.934;11.166;2023-03-01T11:46:08;7.00;99.90
13072;DHT22;6602;58.934;11.166;2023-03-01T12:26:20;7.20;99.90
13072;DHT22;6602;58.934;11.166;2023-03-01T12:49:49;7.40;99.90
13072;DHT22;6602;58.934;11.166;2023-03-01T12:55:34;7.50;99.90
13072;DHT22;6602;58.934;11.166;2023-03-01T13:01:21;7.50;99.90
13072;DHT22;6602;58.934;11.166;2023-03-01T13:23:49;7.50;99.90
13072;DHT22;6602;58.934;11.166;2023-03-01T13:29:25;7.60;99.90
13072;DHT22;6602;58.934;11.166;2023-03-01T13:34:49;7.40;99.90
13072;DHT22;6602;58.934;11.166;2023-03-01T13:45:43;7.30;99.90
13072;DHT22;6602;58.934;11.166;2023-03-01T13:51:05;7.40;99.90
13072;DHT22;6602;58.934;11.166;2023-03-01T13:56:28;7.30;99.90
13072;DHT22;6602;58.934;11.166;2023-03-01T14:01:58;7.30;99.90
13072;DHT22;6602;58.934;11.166;2023-03-01T14:07:21;7.30;99.90
13072;DHT22;6602;58.934;11.166;2023-03-01T14:13:04;7.30;99.90
13072;DHT22;6602;58.934;11.166;2023-03-01T14:18:38;7.40;99.90
13072;DHT22;6602;58.934;11.166;2023-03-01T14:24:03;7.40;99.90
13072;DHT22;6602;58.934;11.166;2023-03-01T14:29:27;7.40;99.90
13072;DHT22;6602;58.934;11.166;2023-03-01T14:34:54;7.40;99.90
13072;DHT22;6602;58.934;11.166;2023-03-01T14:40:26;7.40;99.90
13072;DHT22;6602;58.934;11.166;2023-03-01T14:45:50;7.40;99.90
13072;DHT22;6602;58.934;11.166;2023-03-01T14:51:13;7.30;99.90
13072;DHT22;6602;58.934;11.166;2023-03-01T14:56:45;7.20;99.90
13072;DHT22;6602;58.934;11.166;2023-03-01T15:02:13;7.20;99.90
13072;DHT22;6602;58.934;11.166;2023-03-01T15:07:41;7.20;99.90
13072;DHT22;6602;58.934;11.166;2023-03-01T15:13:34;7.10;99.90
13072;DHT22;6602;58.934;11.166;2023-03-01T15:18:59;7.20;99.90
13072;DHT22;6602;58.934;11.166;2023-03-01T15:24:26;7.20;99.90
13072;DHT22;6602;58.934;11.166;2023-03-01T15:29:58;7.10;99.90
13072;DHT22;6602;58.934;11.166;2023-03-01T15:35:43;7.00;99.90
13072;DHT22;6602;58.934;11.166;2023-03-01T15:41:46;6.90;99.90
13072;DHT22;6602;58.934;11.166;2023-03-01T15:47:21;6.80;99.90
13072;DHT22;6602;58.934;11.166;2023-03-01T15:52:43;6.70;99.90
13072;DHT22;6602;58.934;11.166;2023-03-01T15:58:08;6.60;99.90
13072;DHT22;6602;58.934;11.166;2023-03-01T16:03:30;6.60;99.90
13072;DHT22;6602;58.934;11.166;2023-03-01T16:08:52;6.60;99.90
13072;DHT22;6602;58.934;11.166;2023-03-01T16:14:00;6.50;99.90
13072;DHT22;6602;58.934;11.166;2023-03-01T16:19:19;6.50;99.90
13072;DHT22;6602;58.934;11.166;2023-03-01T16:24:25;6.40;99.90
13072;DHT22;6602;58.934;11.166;2023-03-01T16:29:42;6.40;99.90
13072;DHT22;6602;58.934;11.166;2023-03-01T16:35:01;6.40;99.90
13072;DHT22;6602;58.934;11.166;2023-03-01T16:40:24;6.30;99.90
13072;DHT22;6602;58.934;11.166;2023-03-01T16:45:50;6.20;99.90
13072;DHT22;6602;58.934;11.166;2023-03-01T16:51:02;6.10;99.90
13072;DHT22;6602;58.934;11.166;2023-03-01T16:56:09;6.10;99.90
13072;DHT22;6602;58.934;11.166;2023-03-01T17:01:29;6.00;99.90
13072;DHT22;6602;58.934;11.166;2023-03-01T17:06:37;6.00;99.90
13072;DHT22;6602;58.934;11.166;2023-03-01T17:11:50;5.80;99.90
13072;DHT22;6602;58.934;11.166;2023-03-01T17:17:01;5.70;99.90
13072;DHT22;6602;58.934;11.166;2023-03-01T17:22:21;5.60;99.90
13072;DHT22;6602;58.934;11.166;2023-03-01T17:27:25;5.40;99.90
13072;DHT22;6602;58.934;11.166;2023-03-01T17:32:45;5.60;99.90
13072;DHT22;6602;58.934;11.166;2023-03-01T17:38:05;5.70;99.90
13072;DHT22;6602;58.934;11.166;2023-03-01T17:43:18;5.60;99.90
13072;DHT22;6602;58.934;11.166;2023-03-01T17:48:39;5.50;99.90
13072;DHT22;6602;58.934;11.166;2023-03-01T17:53:59;5.40;99.90
13072;DHT22;6602;58.934;11.166;2023-03-01T17:59:19;5.10;99.90
13072;DHT22;6602;58.934;11.166;2023-03-01T18:04:39;4.90;99.90
13072;DHT22;6602;58.934;11.166;2023-03-01T18:09:55;4.70;99.90
13072;DHT22;6602;58.934;11.166;2023-03-01T18:15:14;4.60;99.90
13072;DHT22;6602;58.934;11.166;2023-03-01T18:20:34;4.40;99.90
13072;DHT22;6602;58.934;11.166;2023-03-01T18:26:00;4.30;99.90
13072;DHT22;6602;58.934;11.166;2023-03-01T18:31:21;4.20;99.90
13072;DHT22;6602;58.934;11.166;2023-03-01T18:36:41;4.10;99.90
13072;DHT22;6602;58.934;11.166;2023-03-01T18:42:02;4.00;99.90
13072;DHT22;6602;58.934;11.166;2023-03-01T18:47:08;4.00;99.90
13072;DHT22;6602;58.934;11.166;2023-03-01T18:52:11;3.90;99.90
13072;DHT22;6602;58.934;11.166;2023-03-01T18:57:31;3.90;99.90
13072;DHT22;6602;58.934;11.166;2023-03-01T19:02:52;3.90;99.90
13072;DHT22;6602;58.934;11.166;2023-03-01T19:08:11;3.90;99.90
13072;DHT22;6602;58.934;11.166;2023-03-01T19:13:34;3.80;99.90
13072;DHT22;6602;58.934;11.166;2023-03-01T19:18:59;3.90;99.90
13072;DHT22;6602;58.934;11.166;2023-03-01T19:24:18;3.80;99.90
13072;DHT22;6602;58.934;11.166;2023-03-01T19:29:38;3.90;99.90
13072;DHT22;6602;58.934;11.166;2023-03-01T19:34:57;3.90;99.90
13072;DHT22;6602;58.934;11.166;2023-03-01T19:40:20;3.50;99.90
13072;DHT22;6602;58.934;11.166;2023-03-01T19:45:40;3.30;99.90
13072;DHT22;6602;58.934;11.166;2023-03-01T19:51:00;3.20;99.90
13072;DHT22;6602;58.934;11.166;2023-03-01T19:56:19;3.10;99.90
13072;DHT22;6602;58.934;11.166;2023-03-01T20:01:40;2.80;99.90
13072;DHT22;6602;58.934;11.166;2023-03-01T20:07:02;2.80;99.90
13072;DHT22;6602;58.934;11.166;2023-03-01T20:12:21;2.70;99.90
13072;DHT22;6602;58.934;11.166;2023-03-01T20:17:41;2.80;99.90
13072;DHT22;6602;58.934;11.166;2023-03-01T20:23:00;2.80;99.90
13072;DHT22;6602;58.934;11.166;2023-03-01T20:28:21;2.80;99.90
13072;DHT22;6602;58.934;11.166;2023-03-01T20:33:41;2.90;99.90
13072;DHT22;6602;58.934;11.166;2023-03-01T20:39:00;2.90;99.90
13072;DHT22;6602;58.934;11.166;2023-03-01T20:44:20;2.90;99.90
13072;DHT22;6602;58.934;11.166;2023-03-01T20:49:43;2.60;99.90
13072;DHT22;6602;58.934;11.166;2023-03-01T20:55:05;2.40;99.90
13072;DHT22;6602;58.934;11.166;2023-03-01T21:00:26;2.30;99.90
13072;DHT22;6602;58.934;11.166;2023-03-01T21:05:46;2.20;99.90
13072;DHT22;6602;58.934;11.166;2023-03-01T21:11:06;2.20;99.90
13072;DHT22;6602;58.934;11.166;2023-03-01T21:16:26;1.90;99.90
13072;DHT22;6602;58.934;11.166;2023-03-01T21:21:46;1.70;99.90
13072;DHT22;6602;58.934;11.166;2023-03-01T21:27:07;1.60;99.90
13072;DHT22;6602;58.934;11.166;2023-03-01T21:32:27;1.50;99.90
13072;DHT22;6602;58.934;11.166;2023-03-01T21:37:47;1.50;99.90
13072;DHT22;6602;58.934;11.166;2023-03-01T21:43:07;1.40;99.90
13072;DHT22;6602;58.934;11.166;2023-03-01T21:48:26;1.30;99.90
13072;DHT22;6602;58.934;11.166;2023-03-01T21:53:47;1.20;99.90
13072;DHT22;6602;58.934;11.166;2023-03-01T21:59:16;1.20;99.90
13072;DHT22;6602;58.934;11.166;2023-03-01T22:04:36;1.10;99.90
13072;DHT22;6602;58.934;11.166;2023-03-01T22:09:57;0.90;99.90
13072;DHT22;6602;58.934;11.166;2023-03-01T22:15:01;0.70;99.90
13072;DHT22;6602;58.934;11.166;2023-03-01T22:20:22;0.60;99.90
13072;DHT22;6602;58.934;11.166;2023-03-01T22:25:32;0.50;99.90
13072;DHT22;6602;58.934;11.166;2023-03-01T22:30:52;0.40;99.90
13072;DHT22;6602;58.934;11.166;2023-03-01T22:35:56;0.20;99.90
13072;DHT22;6602;58.934;11.166;2023-03-01T22:41:16;0.20;99.90
13072;DHT22;6602;58.934;11.166;2023-03-01T22:46:22;0.20;99.90
13072;DHT22;6602;58.934;11.166;2023-03-01T22:51:42;0.20;99.90
13072;DHT22;6602;58.934;11.166;2023-03-01T22:57:02;0.20;99.90
13072;DHT22;6602;58.934;11.166;2023-03-01T23:02:22;0.00;99.90
13072;DHT22;6602;58.934;11.166;2023-03-01T23:07:43;-0.10;99.90
13072;DHT22;6602;58.934;11.166;2023-03-01T23:13:05;-0.10;99.90
13072;DHT22;6602;58.934;11.166;2023-03-01T23:18:24;-0.20;99.90
13072;DHT22;6602;58.934;11.166;2023-03-01T23:23:46;-0.30;99.90
13072;DHT22;6602;58.934;11.166;2023-03-01T23:29:06;-0.20;99.90
13072;DHT22;6602;58.934;11.166;2023-03-01T23:34:29;-0.20;99.90
13072;DHT22;6602;58.934;11.166;2023-03-01T23:39:53;-0.20;99.90
13072;DHT22;6602;58.934;11.166;2023-03-01T23:45:13;-0.30;99.90
13072;DHT22;6602;58.934;11.166;2023-03-01T23:50:15;-0.30;99.90
13072;DHT22;6602;58.934;11.166;2023-03-01T23:55:36;-0.30;99.90
